Sparta, Wisconsin
Current Conditions -  °F | °C
As of 2:35 PM on Sunday 21 Dec 2014 (Local Time) from KCMY Reporting Station
Overcast Overcast  
Wind Chill: 31°   Ceiling: 1200
Heat Index: 37°   Visibility: 7mi
Dew Point: 33°   Wind: 9mph
Humidity: 84%   Direction: 170°S
Pressure: 29.9"   Gusts: NA
Location:  43.94°N, 90.82°W
Report Text: KCMY 212035Z AUTO 17008KT 7SM OVC012 03/01 A2990 RMK AO2 T00300005
Loading
Personal Weather Stations






























Interactive Weather Map New forecast layout! Learn more

10-Day Weather Forecast

Advertisements
Track Severe Weather on mobile